sensor_id;sensor_type;location;lat;lon;timestamp;pressure;altitude;pressure_sealevel;temperature;humidity
5350;BME280;2697;42.144;24.794;2023-06-19T00:01:54;158189.06;;;21.72;100.00
5350;BME280;2697;42.144;24.794;2023-06-19T00:04:19;158155.84;;;21.59;100.00
5350;BME280;2697;42.144;24.794;2023-06-19T00:06:44;158198.34;;;21.75;100.00
5350;BME280;2697;42.144;24.794;2023-06-19T00:09:10;158169.16;;;21.64;100.00
5350;BME280;2697;42.144;24.794;2023-06-19T00:11:35;158177.09;;;21.67;100.00
5350;BME280;2697;42.144;24.794;2023-06-19T00:14:01;158157.22;;;21.59;100.00
5350;BME280;2697;42.144;24.794;2023-06-19T00:16:27;158169.16;;;21.64;100.00
5350;BME280;2697;42.144;24.794;2023-06-19T00:18:52;158161.22;;;21.61;100.00
5350;BME280;2697;42.144;24.794;2023-06-19T00:21:22;158150.56;;;21.57;100.00
5350;BME280;2697;42.144;24.794;2023-06-19T00:23:50;158114.75;;;21.43;100.00
5350;BME280;2697;42.144;24.794;2023-06-19T00:26:15;158142.59;;;21.54;100.00
5350;BME280;2697;42.144;24.794;2023-06-19T00:28:40;158129.31;;;21.49;100.00
5350;BME280;2697;42.144;24.794;2023-06-19T00:31:06;158136.00;;;21.51;100.00
5350;BME280;2697;42.144;24.794;2023-06-19T00:33:32;158143.94;;;21.54;100.00
5350;BME280;2697;42.144;24.794;2023-06-19T00:35:57;158116.06;;;21.44;100.00
5350;BME280;2697;42.144;24.794;2023-06-19T00:38:22;158130.63;;;21.49;100.00
5350;BME280;2697;42.144;24.794;2023-06-19T00:40:49;158108.13;;;21.41;100.00
5350;BME280;2697;42.144;24.794;2023-06-19T00:43:14;158104.09;;;21.39;100.00
5350;BME280;2697;42.144;24.794;2023-06-19T00:45:40;158092.16;;;21.34;100.00
5350;BME280;2697;42.144;24.794;2023-06-19T00:48:06;158105.41;;;21.40;100.00
5350;BME280;2697;42.144;24.794;2023-06-19T00:50:31;158100.13;;;21.38;100.00
5350;BME280;2697;42.144;24.794;2023-06-19T00:52:58;158092.16;;;21.34;100.00
5350;BME280;2697;42.144;24.794;2023-06-19T00:55:25;158065.56;;;21.24;100.00
5350;BME280;2697;42.144;24.794;2023-06-19T00:57:52;158070.94;;;21.26;100.00
5350;BME280;2697;42.144;24.794;2023-06-19T01:00:18;158050.97;;;21.19;100.00
5350;BME280;2697;42.144;24.794;2023-06-19T01:02:43;158050.97;;;21.19;100.00
5350;BME280;2697;42.144;24.794;2023-06-19T01:05:09;158041.69;;;21.15;100.00
5350;BME280;2697;42.144;24.794;2023-06-19T01:07:46;158031.03;;;21.11;100.00
5350;BME280;2697;42.144;24.794;2023-06-19T01:10:21;158033.69;;;21.12;100.00
5350;BME280;2697;42.144;24.794;2023-06-19T01:13:17;158032.38;;;21.12;100.00
5350;BME280;2697;42.144;24.794;2023-06-19T01:15:43;158069.56;;;21.26;100.00
5350;BME280;2697;42.144;24.794;2023-06-19T01:18:09;158044.34;;;21.16;100.00
5350;BME280;2697;42.144;24.794;2023-06-19T01:20:37;158027.06;;;21.10;100.00
5350;BME280;2697;42.144;24.794;2023-06-19T01:23:07;158036.38;;;21.13;100.00
5350;BME280;2697;42.144;24.794;2023-06-19T01:25:33;158036.38;;;21.13;100.00
5350;BME280;2697;42.144;24.794;2023-06-19T01:27:58;158049.63;;;21.18;100.00
5350;BME280;2697;42.144;24.794;2023-06-19T01:30:24;158044.34;;;21.16;100.00
5350;BME280;2697;42.144;24.794;2023-06-19T01:32:59;158028.41;;;21.10;100.00
5350;BME280;2697;42.144;24.794;2023-06-19T01:35:33;158050.97;;;21.19;100.00
5350;BME280;2697;42.144;24.794;2023-06-19T01:38:00;158046.97;;;21.17;100.00
5350;BME280;2697;42.144;24.794;2023-06-19T01:40:26;158017.78;;;21.06;100.00
5350;BME280;2697;42.144;24.794;2023-06-19T01:42:58;158066.91;;;21.25;100.00
5350;BME280;2697;42.144;24.794;2023-06-19T01:45:27;158070.94;;;21.26;100.00
5350;BME280;2697;42.144;24.794;2023-06-19T01:47:53;158054.94;;;21.20;100.00
5350;BME280;2697;42.144;24.794;2023-06-19T01:50:18;158045.66;;;21.17;100.00
5350;BME280;2697;42.144;24.794;2023-06-19T01:52:44;158052.28;;;21.19;100.00
5350;BME280;2697;42.144;24.794;2023-06-19T01:55:10;158032.38;;;21.12;100.00
5350;BME280;2697;42.144;24.794;2023-06-19T01:57:35;158024.41;;;21.09;100.00
5350;BME280;2697;42.144;24.794;2023-06-19T02:00:02;158044.34;;;21.16;100.00
5350;BME280;2697;42.144;24.794;2023-06-19T02:02:27;158032.38;;;21.12;100.00
5350;BME280;2697;42.144;24.794;2023-06-19T02:04:53;158033.69;;;21.12;100.00
5350;BME280;2697;42.144;24.794;2023-06-19T02:07:18;158031.03;;;21.11;100.00
5350;BME280;2697;42.144;24.794;2023-06-19T02:09:43;158007.16;;;21.02;100.00
5350;BME280;2697;42.144;24.794;2023-06-19T02:12:09;158007.16;;;21.02;100.00
5350;BME280;2697;42.144;24.794;2023-06-19T02:14:34;158031.03;;;21.11;100.00
5350;BME280;2697;42.144;24.794;2023-06-19T02:17:00;158009.81;;;21.03;100.00
5350;BME280;2697;42.144;24.794;2023-06-19T02:19:25;158005.84;;;21.01;100.00
5350;BME280;2697;42.144;24.794;2023-06-19T02:21:50;157995.22;;;20.97;100.00
5350;BME280;2697;42.144;24.794;2023-06-19T02:24:16;157988.63;;;20.95;100.00
5350;BME280;2697;42.144;24.794;2023-06-19T02:26:41;158019.13;;;21.06;100.00
5350;BME280;2697;42.144;24.794;2023-06-19T02:29:09;158028.41;;;21.10;100.00
5350;BME280;2697;42.144;24.794;2023-06-19T02:31:34;158033.69;;;21.12;100.00
5350;BME280;2697;42.144;24.794;2023-06-19T02:34:00;158020.44;;;21.07;100.00
5350;BME280;2697;42.144;24.794;2023-06-19T02:36:25;158028.41;;;21.10;100.00
5350;BME280;2697;42.144;24.794;2023-06-19T02:38:51;158017.78;;;21.06;100.00
5350;BME280;2697;42.144;24.794;2023-06-19T02:41:16;158050.97;;;21.19;100.00
5350;BME280;2697;42.144;24.794;2023-06-19T02:43:44;158052.28;;;21.19;100.00
5350;BME280;2697;42.144;24.794;2023-06-19T02:46:09;158096.16;;;21.36;100.00
5350;BME280;2697;42.144;24.794;2023-06-19T02:48:35;158097.47;;;21.37;100.00
5350;BME280;2697;42.144;24.794;2023-06-19T02:51:00;158089.53;;;21.33;100.00
5350;BME280;2697;42.144;24.794;2023-06-19T02:53:26;158078.88;;;21.29;100.00
5350;BME280;2697;42.144;24.794;2023-06-19T02:55:51;158096.16;;;21.36;100.00
5350;BME280;2697;42.144;24.794;2023-06-19T02:58:17;158098.78;;;21.37;100.00
5350;BME280;2697;42.144;24.794;2023-06-19T03:00:42;158126.66;;;21.48;100.00
5350;BME280;2697;42.144;24.794;2023-06-19T03:03:08;158116.06;;;21.44;100.00
5350;BME280;2697;42.144;24.794;2023-06-19T03:05:33;158129.31;;;21.49;100.00
5350;BME280;2697;42.144;24.794;2023-06-19T03:07:59;158142.59;;;21.54;100.00
5350;BME280;2697;42.144;24.794;2023-06-19T03:10:24;158155.84;;;21.59;99.84
5350;BME280;2697;42.144;24.794;2023-06-19T03:12:50;158205.03;;;21.78;99.21
5350;BME280;2697;42.144;24.794;2023-06-19T03:15:15;158255.47;;;21.97;97.20
5350;BME280;2697;42.144;24.794;2023-06-19T03:17:40;158307.31;;;22.17;95.79
5350;BME280;2697;42.144;24.794;2023-06-19T03:20:06;158367.06;;;22.40;94.15
5350;BME280;2697;42.144;24.794;2023-06-19T03:22:34;158418.88;;;22.60;92.61
5350;BME280;2697;42.144;24.794;2023-06-19T03:24:59;158464.03;;;22.77;91.43
5350;BME280;2697;42.144;24.794;2023-06-19T03:27:25;158477.34;;;22.82;90.61
5350;BME280;2697;42.144;24.794;2023-06-19T03:29:52;158477.34;;;22.82;91.36
5350;BME280;2697;42.144;24.794;2023-06-19T03:32:18;158526.56;;;23.01;89.85
5350;BME280;2697;42.144;24.794;2023-06-19T03:34:45;158507.97;;;22.94;90.15
5350;BME280;2697;42.144;24.794;2023-06-19T03:37:11;158558.44;;;23.13;89.36
5350;BME280;2697;42.144;24.794;2023-06-19T03:39:37;158577.06;;;23.20;87.96
5350;BME280;2697;42.144;24.794;2023-06-19T03:42:03;158644.88;;;23.46;87.39
5350;BME280;2697;42.144;24.794;2023-06-19T03:44:28;158634.19;;;23.42;86.58
5350;BME280;2697;42.144;24.794;2023-06-19T03:46:54;158690.06;;;23.64;86.49
5350;BME280;2697;42.144;24.794;2023-06-19T03:49:19;158646.19;;;23.47;86.35
5350;BME280;2697;42.144;24.794;2023-06-19T03:51:45;158695.41;;;23.66;85.55
5350;BME280;2697;42.144;24.794;2023-06-19T03:54:10;158748.59;;;23.86;84.19
5350;BME280;2697;42.144;24.794;2023-06-19T03:56:35;158723.34;;;23.76;84.25
5350;BME280;2697;42.144;24.794;2023-06-19T03:59:01;158809.75;;;24.09;82.77
5350;BME280;2697;42.144;24.794;2023-06-19T04:01:26;158841.69;;;24.22;82.23
5350;BME280;2697;42.144;24.794;2023-06-19T04:03:51;158977.38;;;24.73;80.02
5350;BME280;2697;42.144;24.794;2023-06-19T04:06:17;159013.34;;;24.87;79.73
5350;BME280;2697;42.144;24.794;2023-06-19T04:08:43;159033.28;;;24.95;77.77
5350;BME280;2697;42.144;24.794;2023-06-19T04:11:09;159073.22;;;25.10;77.47
5350;BME280;2697;42.144;24.794;2023-06-19T04:13:34;159153.13;;;25.41;76.28
5350;BME280;2697;42.144;24.794;2023-06-19T04:15:59;159294.25;;;25.95;74.92
5350;BME280;2697;42.144;24.794;2023-06-19T04:18:25;159375.50;;;26.26;72.02
5350;BME280;2697;42.144;24.794;2023-06-19T04:20:52;159424.81;;;26.45;70.93
5350;BME280;2697;42.144;24.794;2023-06-19T04:23:17;159483.41;;;26.67;69.69
5350;BME280;2697;42.144;24.794;2023-06-19T04:25:43;159408.81;;;26.38;70.66
5350;BME280;2697;42.144;24.794;2023-06-19T04:28:08;159470.13;;;26.62;69.59
5350;BME280;2697;42.144;24.794;2023-06-19T04:30:33;159454.13;;;26.56;68.40
5350;BME280;2697;42.144;24.794;2023-06-19T04:32:59;159491.38;;;26.70;68.26
5350;BME280;2697;42.144;24.794;2023-06-19T04:35:24;159571.34;;;27.01;66.74
5350;BME280;2697;42.144;24.794;2023-06-19T04:37:50;159447.47;;;26.53;68.06
5350;BME280;2697;42.144;24.794;2023-06-19T04:40:15;159522.06;;;26.82;67.46
5350;BME280;2697;42.144;24.794;2023-06-19T04:42:41;159590.00;;;27.08;66.58
5350;BME280;2697;42.144;24.794;2023-06-19T04:45:07;159630.00;;;27.23;65.30
5350;BME280;2697;42.144;24.794;2023-06-19T04:47:33;159691.34;;;27.46;64.69
5350;BME280;2697;42.144;24.794;2023-06-19T04:49:59;159608.69;;;27.15;64.12
5350;BME280;2697;42.144;24.794;2023-06-19T04:52:24;159579.38;;;27.04;64.42
5350;BME280;2697;42.144;24.794;2023-06-19T04:54:50;159694.00;;;27.47;64.33
5350;BME280;2697;42.144;24.794;2023-06-19T04:57:15;159746.00;;;27.67;63.10
5350;BME280;2697;42.144;24.794;2023-06-19T04:59:42;159791.34;;;27.85;60.79
5350;BME280;2697;42.144;24.794;2023-06-19T05:02:09;159785.97;;;27.82;61.64
5350;BME280;2697;42.144;24.794;2023-06-19T05:04:34;159727.28;;;27.60;62.78
5350;BME280;2697;42.144;24.794;2023-06-19T05:07:00;159904.63;;;28.28;60.09
5350;BME280;2697;42.144;24.794;2023-06-19T05:09:25;159790.00;;;27.84;61.06
5350;BME280;2697;42.144;24.794;2023-06-19T05:11:51;159816.66;;;27.94;60.30
5350;BME280;2697;42.144;24.794;2023-06-19T05:14:16;159901.97;;;28.27;58.66
5350;BME280;2697;42.144;24.794;2023-06-19T05:16:41;159979.34;;;28.56;58.70
5350;BME280;2697;42.144;24.794;2023-06-19T05:19:07;160046.03;;;28.82;57.23
5350;BME280;2697;42.144;24.794;2023-06-19T05:21:32;160095.44;;;29.01;55.82
5350;BME280;2697;42.144;24.794;2023-06-19T05:23:57;160006.06;;;28.66;55.83
5350;BME280;2697;42.144;24.794;2023-06-19T05:26:23;159895.31;;;28.24;57.32
5350;BME280;2697;42.144;24.794;2023-06-19T05:28:49;160075.44;;;28.93;56.82
5350;BME280;2697;42.144;24.794;2023-06-19T05:31:15;160208.88;;;29.44;55.43
5350;BME280;2697;42.144;24.794;2023-06-19T05:33:43;160190.19;;;29.37;54.92
5350;BME280;2697;42.144;24.794;2023-06-19T05:36:09;160216.88;;;29.47;53.39
5350;BME280;2697;42.144;24.794;2023-06-19T05:38:34;160259.63;;;29.63;53.35
5350;BME280;2697;42.144;24.794;2023-06-19T05:40:59;160203.53;;;29.42;54.24
5350;BME280;2697;42.144;24.794;2023-06-19T05:43:25;160483.91;;;30.49;52.23
5350;BME280;2697;42.144;24.794;2023-06-19T05:45:51;160446.56;;;30.34;52.42
5350;BME280;2697;42.144;24.794;2023-06-19T05:48:17;160708.38;;;31.34;49.75
5350;BME280;2697;42.144;24.794;2023-06-19T05:50:42;160457.22;;;30.39;51.33
5350;BME280;2697;42.144;24.794;2023-06-19T05:53:08;160419.81;;;30.24;51.70
5350;BME280;2697;42.144;24.794;2023-06-19T05:55:33;160393.13;;;30.14;51.57
5350;BME280;2697;42.144;24.794;2023-06-19T05:57:58;160656.22;;;31.14;49.04
5350;BME280;2697;42.144;24.794;2023-06-19T06:00:24;160764.50;;;31.56;48.61
5350;BME280;2697;42.144;24.794;2023-06-19T06:02:49;160636.19;;;31.07;48.74
5350;BME280;2697;42.144;24.794;2023-06-19T06:05:17;160433.19;;;30.29;50.23
5350;BME280;2697;42.144;24.794;2023-06-19T06:07:44;160518.66;;;30.62;49.46
5350;BME280;2697;42.144;24.794;2023-06-19T06:10:10;160433.19;;;30.29;50.54
5350;BME280;2697;42.144;24.794;2023-06-19T06:12:35;160398.50;;;30.16;50.90
5350;BME280;2697;42.144;24.794;2023-06-19T06:15:05;160449.22;;;30.35;49.54
5350;BME280;2697;42.144;24.794;2023-06-19T06:17:31;160465.22;;;30.42;50.06
5350;BME280;2697;42.144;24.794;2023-06-19T06:19:56;160521.31;;;30.63;48.75
5350;BME280;2697;42.144;24.794;2023-06-19T06:22:22;160481.25;;;30.48;49.75
5350;BME280;2697;42.144;24.794;2023-06-19T06:24:47;160477.25;;;30.46;48.94
5350;BME280;2697;42.144;24.794;2023-06-19T06:27:13;160471.94;;;30.44;48.69
5350;BME280;2697;42.144;24.794;2023-06-19T06:29:38;160590.78;;;30.89;48.34
5350;BME280;2697;42.144;24.794;2023-06-19T06:32:05;160703.03;;;31.32;46.98
5350;BME280;2697;42.144;24.794;2023-06-19T06:34:32;160812.63;;;31.74;45.17
5350;BME280;2697;42.144;24.794;2023-06-19T06:36:58;160892.81;;;32.04;45.31
5350;BME280;2697;42.144;24.794;2023-06-19T06:39:23;160708.38;;;31.34;45.88
5350;BME280;2697;42.144;24.794;2023-06-19T06:41:49;160689.72;;;31.27;46.31
5350;BME280;2697;42.144;24.794;2023-06-19T06:44:15;160601.50;;;30.93;46.68
5350;BME280;2697;42.144;24.794;2023-06-19T06:46:40;160609.47;;;30.97;47.43
5350;BME280;2697;42.144;24.794;2023-06-19T06:49:05;160552.06;;;30.75;47.73
5350;BME280;2697;42.144;24.794;2023-06-19T06:51:31;160554.75;;;30.76;47.54
5350;BME280;2697;42.144;24.794;2023-06-19T06:53:56;160528.03;;;30.66;46.63
5350;BME280;2697;42.144;24.794;2023-06-19T06:56:21;160554.75;;;30.76;47.20
5350;BME280;2697;42.144;24.794;2023-06-19T06:58:47;160580.09;;;30.85;47.11
5350;BME280;2697;42.144;24.794;2023-06-19T07:01:12;160743.13;;;31.47;45.72
5350;BME280;2697;42.144;24.794;2023-06-19T07:03:38;160871.44;;;31.96;45.84
5350;BME280;2697;42.144;24.794;2023-06-19T07:06:04;160692.38;;;31.28;46.19
5350;BME280;2697;42.144;24.794;2023-06-19T07:08:30;160813.94;;;31.74;45.54
5350;BME280;2697;42.144;24.794;2023-06-19T07:10:55;160683.00;;;31.25;46.21
5350;BME280;2697;42.144;24.794;2023-06-19T07:13:21;160357.06;;;30.00;48.92
5350;BME280;2697;42.144;24.794;2023-06-19T07:15:46;160453.22;;;30.37;46.66
5350;BME280;2697;42.144;24.794;2023-06-19T07:18:11;160578.78;;;30.85;46.50
5350;BME280;2697;42.144;24.794;2023-06-19T07:20:37;160819.31;;;31.76;45.04
5350;BME280;2697;42.144;24.794;2023-06-19T07:23:02;160839.38;;;31.84;44.98
5350;BME280;2697;42.144;24.794;2023-06-19T07:25:28;160906.16;;;32.10;43.83
5350;BME280;2697;42.144;24.794;2023-06-19T07:27:53;161047.91;;;32.64;43.02
5350;BME280;2697;42.144;24.794;2023-06-19T07:30:19;160962.38;;;32.31;43.50
5350;BME280;2697;42.144;24.794;2023-06-19T07:32:44;160767.19;;;31.57;43.87
5350;BME280;2697;42.144;24.794;2023-06-19T07:35:10;160793.91;;;31.67;44.32
5350;BME280;2697;42.144;24.794;2023-06-19T07:37:36;160727.09;;;31.41;44.51
5350;BME280;2697;42.144;24.794;2023-06-19T07:40:02;160621.53;;;31.01;45.26
5350;BME280;2697;42.144;24.794;2023-06-19T07:42:28;160684.31;;;31.25;44.10
5350;BME280;2697;42.144;24.794;2023-06-19T07:44:53;160646.91;;;31.11;45.24
5350;BME280;2697;42.144;24.794;2023-06-19T07:47:19;160830.00;;;31.81;43.87
5350;BME280;2697;42.144;24.794;2023-06-19T07:49:46;160739.13;;;31.46;44.25
5350;BME280;2697;42.144;24.794;2023-06-19T07:52:11;160836.72;;;31.83;42.89
5350;BME280;2697;42.144;24.794;2023-06-19T07:54:57;160970.38;;;32.34;42.93
5350;BME280;2697;42.144;24.794;2023-06-19T07:57:24;161128.16;;;32.94;42.95
5350;BME280;2697;42.144;24.794;2023-06-19T07:59:51;160991.78;;;32.42;41.45
5350;BME280;2697;42.144;24.794;2023-06-19T08:02:17;161291.38;;;33.56;41.02
5350;BME280;2697;42.144;24.794;2023-06-19T08:04:43;161066.63;;;32.71;41.09
5350;BME280;2697;42.144;24.794;2023-06-19T08:07:08;161047.91;;;32.64;40.57
5350;BME280;2697;42.144;24.794;2023-06-19T08:09:34;160978.38;;;32.37;43.12
5350;BME280;2697;42.144;24.794;2023-06-19T08:12:00;160946.28;;;32.25;42.53
5350;BME280;2697;42.144;24.794;2023-06-19T08:14:25;160679.00;;;31.23;42.77
5350;BME280;2697;42.144;24.794;2023-06-19T08:16:51;160748.47;;;31.49;43.30
5350;BME280;2697;42.144;24.794;2023-06-19T08:19:16;160793.91;;;31.67;42.38
5350;BME280;2697;42.144;24.794;2023-06-19T08:21:41;160804.56;;;31.71;42.38
5350;BME280;2697;42.144;24.794;2023-06-19T08:24:07;160744.47;;;31.48;41.84
5350;BME280;2697;42.144;24.794;2023-06-19T08:26:32;160839.38;;;31.84;41.66
5350;BME280;2697;42.144;24.794;2023-06-19T08:28:57;160707.03;;;31.34;42.67
5350;BME280;2697;42.144;24.794;2023-06-19T08:31:23;160590.78;;;30.89;44.87
5350;BME280;2697;42.144;24.794;2023-06-19T08:33:53;160435.84;;;30.30;45.62
5350;BME280;2697;42.144;24.794;2023-06-19T08:36:19;160355.72;;;30.00;45.42
5350;BME280;2697;42.144;24.794;2023-06-19T08:38:44;160423.88;;;30.26;45.43
5350;BME280;2697;42.144;24.794;2023-06-19T08:41:09;160370.38;;;30.05;45.92
5350;BME280;2697;42.144;24.794;2023-06-19T08:43:35;160335.69;;;29.92;47.04
5350;BME280;2697;42.144;24.794;2023-06-19T08:46:10;160319.66;;;29.86;46.84
5350;BME280;2697;42.144;24.794;2023-06-19T08:48:37;160374.47;;;30.07;45.26
5350;BME280;2697;42.144;24.794;2023-06-19T08:51:03;160321.00;;;29.87;46.13
5350;BME280;2697;42.144;24.794;2023-06-19T08:53:36;160299.69;;;29.78;46.51
5350;BME280;2697;42.144;24.794;2023-06-19T08:56:02;160250.31;;;29.60;47.17
5350;BME280;2697;42.144;24.794;2023-06-19T08:58:28;160309.00;;;29.82;46.14
5350;BME280;2697;42.144;24.794;2023-06-19T09:00:54;160277.00;;;29.70;45.07
5350;BME280;2697;42.144;24.794;2023-06-19T09:03:20;160243.59;;;29.57;45.43
5350;BME280;2697;42.144;24.794;2023-06-19T09:05:47;160342.34;;;29.95;44.63
5350;BME280;2697;42.144;24.794;2023-06-19T09:08:16;160266.28;;;29.66;45.26
5350;BME280;2697;42.144;24.794;2023-06-19T09:10:42;160288.97;;;29.74;45.20
5350;BME280;2697;42.144;24.794;2023-06-19T09:13:07;160281.00;;;29.71;45.29
5350;BME280;2697;42.144;24.794;2023-06-19T09:15:37;160310.34;;;29.83;45.82
5350;BME280;2697;42.144;24.794;2023-06-19T09:18:08;160410.50;;;30.21;43.91
5350;BME280;2697;42.144;24.794;2023-06-19T09:20:36;160345.00;;;29.96;45.01
5350;BME280;2697;42.144;24.794;2023-06-19T09:23:03;160383.78;;;30.11;46.53
5350;BME280;2697;42.144;24.794;2023-06-19T09:25:29;160403.81;;;30.18;45.43
5350;BME280;2697;42.144;24.794;2023-06-19T09:27:55;160407.81;;;30.20;43.18
5350;BME280;2697;42.144;24.794;2023-06-19T09:30:21;160385.13;;;30.11;42.29
5350;BME280;2697;42.144;24.794;2023-06-19T09:32:46;160331.69;;;29.91;43.44
5350;BME280;2697;42.144;24.794;2023-06-19T09:35:12;160377.13;;;30.08;44.61
5350;BME280;2697;42.144;24.794;2023-06-19T09:37:39;160439.84;;;30.32;44.19
5350;BME280;2697;42.144;24.794;2023-06-19T09:40:06;160447.88;;;30.35;43.33
5350;BME280;2697;42.144;24.794;2023-06-19T09:42:37;160465.22;;;30.42;42.66
5350;BME280;2697;42.144;24.794;2023-06-19T09:45:04;160498.63;;;30.54;43.19
5350;BME280;2697;42.144;24.794;2023-06-19T09:47:32;160503.94;;;30.56;42.73
5350;BME280;2697;42.144;24.794;2023-06-19T09:50:01;160561.41;;;30.78;43.00
5350;BME280;2697;42.144;24.794;2023-06-19T09:52:28;160433.19;;;30.29;43.27
5350;BME280;2697;42.144;24.794;2023-06-19T09:54:55;160510.63;;;30.59;42.72
5350;BME280;2697;42.144;24.794;2023-06-19T09:57:21;160572.13;;;30.82;42.35
5350;BME280;2697;42.144;24.794;2023-06-19T09:59:55;160489.25;;;30.51;41.69
5350;BME280;2697;42.144;24.794;2023-06-19T10:02:26;160494.63;;;30.53;42.47
5350;BME280;2697;42.144;24.794;2023-06-19T10:04:54;160537.38;;;30.69;41.85
5350;BME280;2697;42.144;24.794;2023-06-19T10:07:26;160590.78;;;30.89;42.46
5350;BME280;2697;42.144;24.794;2023-06-19T10:10:10;160684.31;;;31.25;41.42
5350;BME280;2697;42.144;24.794;2023-06-19T10:12:45;160775.19;;;31.60;41.17
5350;BME280;2697;42.144;24.794;2023-06-19T10:15:20;160646.91;;;31.11;42.02
5350;BME280;2697;42.144;24.794;2023-06-19T10:17:59;160733.75;;;31.44;41.35
5350;BME280;2697;42.144;24.794;2023-06-19T10:20:27;160653.56;;;31.13;40.93
5350;BME280;2697;42.144;24.794;2023-06-19T10:23:08;160748.47;;;31.49;41.87
5350;BME280;2697;42.144;24.794;2023-06-19T10:25:35;160680.31;;;31.24;41.25
5350;BME280;2697;42.144;24.794;2023-06-19T10:28:01;160554.75;;;30.76;41.34
5350;BME280;2697;42.144;24.794;2023-06-19T10:30:27;160642.91;;;31.09;41.80
5350;BME280;2697;42.144;24.794;2023-06-19T10:32:55;160717.75;;;31.38;42.12
5350;BME280;2697;42.144;24.794;2023-06-19T10:35:20;160780.50;;;31.62;41.13
5350;BME280;2697;42.144;24.794;2023-06-19T10:37:47;160751.13;;;31.51;40.84
5350;BME280;2697;42.144;24.794;2023-06-19T10:40:13;160764.50;;;31.56;40.36
5350;BME280;2697;42.144;24.794;2023-06-19T10:42:39;160657.56;;;31.15;39.42
5350;BME280;2697;42.144;24.794;2023-06-19T10:45:06;160906.16;;;32.10;39.70
5350;BME280;2697;42.144;24.794;2023-06-19T10:47:33;161063.97;;;32.70;37.49
5350;BME280;2697;42.144;24.794;2023-06-19T10:49:58;161133.53;;;32.96;37.63
5350;BME280;2697;42.144;24.794;2023-06-19T10:52:24;161170.94;;;33.10;36.65
5350;BME280;2697;42.144;24.794;2023-06-19T10:54:53;161322.13;;;33.68;35.92
5350;BME280;2697;42.144;24.794;2023-06-19T10:57:26;161534.97;;;34.49;36.25
5350;BME280;2697;42.144;24.794;2023-06-19T10:59:52;161492.06;;;34.33;36.43
5350;BME280;2697;42.144;24.794;2023-06-19T11:02:18;161505.47;;;34.38;35.48
5350;BME280;2697;42.144;24.794;2023-06-19T11:04:43;161486.72;;;34.30;35.38
5350;BME280;2697;42.144;24.794;2023-06-19T11:07:09;161401.13;;;33.98;35.87
5350;BME280;2697;42.144;24.794;2023-06-19T11:09:35;161227.09;;;33.32;37.22
5350;BME280;2697;42.144;24.794;2023-06-19T11:12:00;161287.38;;;33.55;36.19
5350;BME280;2697;42.144;24.794;2023-06-19T11:14:29;161213.75;;;33.27;37.55
5350;BME280;2697;42.144;24.794;2023-06-19T11:16:55;161168.28;;;33.09;37.17
5350;BME280;2697;42.144;24.794;2023-06-19T11:19:21;161117.47;;;32.90;38.60
5350;BME280;2697;42.144;24.794;2023-06-19T11:21:52;160932.88;;;32.20;40.62
5350;BME280;2697;42.144;24.794;2023-06-19T11:24:18;160954.28;;;32.28;39.56
5350;BME280;2697;42.144;24.794;2023-06-19T11:26:46;160948.94;;;32.26;37.59
5350;BME280;2697;42.144;24.794;2023-06-19T11:31:44;160836.72;;;31.83;37.58
5350;BME280;2697;42.144;24.794;2023-06-19T11:34:10;160784.50;;;31.63;38.72
5350;BME280;2697;42.144;24.794;2023-06-19T11:36:37;160723.09;;;31.40;39.82
5350;BME280;2697;42.144;24.794;2023-06-19T11:39:02;160732.41;;;31.43;38.57
5350;BME280;2697;42.144;24.794;2023-06-19T11:41:30;160860.75;;;31.92;37.16
5350;BME280;2697;42.144;24.794;2023-06-19T11:44:04;160930.22;;;32.19;37.22
5350;BME280;2697;42.144;24.794;2023-06-19T11:46:30;161005.09;;;32.47;36.88
5350;BME280;2697;42.144;24.794;2023-06-19T11:49:14;161093.34;;;32.81;36.47
5350;BME280;2697;42.144;24.794;2023-06-19T11:51:40;161023.84;;;32.54;35.99
5350;BME280;2697;42.144;24.794;2023-06-19T11:54:10;161014.50;;;32.51;36.05
5350;BME280;2697;42.144;24.794;2023-06-19T11:56:36;161039.91;;;32.60;36.70
5350;BME280;2697;42.144;24.794;2023-06-19T11:59:02;161061.28;;;32.69;36.59
5350;BME280;2697;42.144;24.794;2023-06-19T12:01:28;161058.63;;;32.68;36.14
5350;BME280;2697;42.144;24.794;2023-06-19T12:03:54;161034.56;;;32.58;37.00
5350;BME280;2697;42.144;24.794;2023-06-19T12:06:20;161026.50;;;32.55;38.75
5350;BME280;2697;42.144;24.794;2023-06-19T12:08:45;161092.03;;;32.80;38.99
5350;BME280;2697;42.144;24.794;2023-06-19T12:11:11;161219.09;;;33.29;36.96
5350;BME280;2697;42.144;24.794;2023-06-19T12:13:39;161342.19;;;33.76;37.53
5350;BME280;2697;42.144;24.794;2023-06-19T12:16:05;161607.22;;;34.76;34.30
5350;BME280;2697;42.144;24.794;2023-06-19T12:18:30;161489.41;;;34.32;34.41
5350;BME280;2697;42.144;24.794;2023-06-19T12:20:55;161711.66;;;35.16;34.30
5350;BME280;2697;42.144;24.794;2023-06-19T12:23:21;161774.66;;;35.40;33.67
5350;BME280;2697;42.144;24.794;2023-06-19T12:25:46;161813.47;;;35.55;32.65
5350;BME280;2697;42.144;24.794;2023-06-19T12:28:12;161920.69;;;35.95;32.86
5350;BME280;2697;42.144;24.794;2023-06-19T12:30:41;161513.53;;;34.41;34.81
5350;BME280;2697;42.144;24.794;2023-06-19T12:33:07;161672.88;;;35.01;35.01
5350;BME280;2697;42.144;24.794;2023-06-19T12:35:32;162025.19;;;36.35;32.87
5350;BME280;2697;42.144;24.794;2023-06-19T12:37:58;161642.06;;;34.90;32.85
5350;BME280;2697;42.144;24.794;2023-06-19T12:40:23;161601.88;;;34.74;34.73
5350;BME280;2697;42.144;24.794;2023-06-19T12:42:49;161457.31;;;34.19;36.05
5350;BME280;2697;42.144;24.794;2023-06-19T12:45:15;161493.41;;;34.33;36.82
5350;BME280;2697;42.144;24.794;2023-06-19T12:47:41;161721.06;;;35.20;34.87
5350;BME280;2697;42.144;24.794;2023-06-19T12:50:07;161856.31;;;35.71;33.46
5350;BME280;2697;42.144;24.794;2023-06-19T12:52:32;162065.38;;;36.50;31.38
5350;BME280;2697;42.144;24.794;2023-06-19T12:54:57;162065.38;;;36.50;30.83
5350;BME280;2697;42.144;24.794;2023-06-19T12:57:26;161588.47;;;34.69;34.78